Logo AVAMET
Benvolgut visitant, si us plau, ingressa Recuperar contrasenya

Xàbia Tossals/Carrasquetes

Dades diàries. Acumulats / Últims 30 dies disponibles

Data Temperatura (°C) Humitat rel. (%) Pressió rel. (hPa) Vent (km/h) Precipitació
Mínima Mitjana Màxima Amplitud
tèrmica
Mínima Mitjana Màxima Mínima Mitjana Màxima Predom. Mitjana Ràfega
màxima
Total
(mm)
Índex-n
Mínima Mitjana Màxima Mínima Mitjana Màxima n
0 a 1
P0 max
mm 5'
Dades mensuals acumulades fins l'últim dia disponible
10/2019 16,3 18,0 19,9 22,0 25,1 26,4 30,0 13,7 28 79 98 1.008 1.016 1.022   1,8 35,4 0,6
Dades anuals acumulades fins l'últim dia disponible
2019 2,3 14,7 26,1 19,1 11,3 23,8 36,3 34,0 18 72 99 993 1.017 1.035   2,6 53,1 643,8
Últims 30 dies disponibles
13-10-2019 18,0     21,6     25,7 7,7 72 89 98 1.015 1.016 1.017 S 2,1 22,5 0,2
12-10-2019 18,5     21,6     25,1 6,6 80 89 95 1.016 1.017 1.019 ENE 0,8 16,1 0,0
11-10-2019 17,6     21,5     25,9 8,3 70 85 95 1.018 1.020 1.022 ESE 1,3 19,3 0,0
10-10-2019 18,0     21,7     25,9 7,9 63 82 94 1.018 1.020 1.021 ESE 1,1 19,3 0,0
09-10-2019 19,9     22,6     26,5 6,6 66 77 88 1.015 1.016 1.018 SW 2,1 22,5 0,0
08-10-2019 16,6     21,3     25,9 9,3 67 79 90 1.017 1.018 1.020 SW 3,2 27,4 0,0
07-10-2019 18,5     21,8     25,6 7,1 57 79 96 1.014 1.016 1.018 NW 1,6 25,7 0,0
06-10-2019 17,8     21,6     26,1 8,3 70 87 97 1.015 1.016 1.018 NW 1,0 19,3 0,2
05-10-2019 18,0     21,8     25,5 7,5 72 83 96 1.013 1.014 1.016 NW 2,3 25,7 0,0
04-10-2019 16,3     21,7     27,4 11,1 48 75 89 1.013 1.015 1.017 NW 1,4 22,5 0,0
03-10-2019 16,7     20,8     25,4 8,7 59 70 87 1.015 1.016 1.017 NW 1,1 14,5 0,0
02-10-2019 19,6     24,8     28,4 8,8 28 48 77 1.009 1.012 1.016 NW 4,2 35,4 0,0
01-10-2019 18,2     23,8     30,0 11,8 30 81 98 1.008 1.011 1.015 NW 1,0 19,3 0,2
30-09-2019 18,1     22,7     27,3 9,2 73 87 96 1.014 1.015 1.017 NE 1,6 20,9 0,2
29-09-2019 17,4     22,7     27,4 10,0 69 86 96 1.014 1.017 1.019 SW 1,9 22,5 0,2
28-09-2019 20,1     23,2     27,6 7,5 70 87 96 1.017 1.018 1.020 ESE 1,1 22,5 0,0
27-09-2019 18,0     23,4     27,8 9,8 62 79 91 1.015 1.017 1.018 WSW 1,8 22,5 0,0
26-09-2019 18,9     23,3     28,1 9,2 63 84 95 1.017 1.018 1.019 WSW 1,6 22,5 0,2
25-09-2019 20,8     25,3     28,9 8,1 40 65 93 1.012 1.014 1.017 NW 3,5 33,8 0,0
24-09-2019 17,3     23,5     31,1 13,8 42 74 91 1.013 1.015 1.018 SW 1,3 20,9 0,0
23-09-2019 21,4     24,1     26,4 5,0 46 64 88 1.015 1.017 1.019 W 2,1 24,1 0,0
22-09-2019 20,9     24,5     28,2 7,3 67 83 95 1.011 1.012 1.015 WSW 1,3 17,7 0,0
21-09-2019 22,3     24,3     28,2 5,9 70 85 92 1.011 1.012 1.014 NE 1,4 22,5 0,0
20-09-2019 20,1     23,0     26,1 6,0 78 89 95 1.014 1.016 1.017 E 1,6 20,9 0,0
19-09-2019 18,4     22,7     27,1 8,7 68 83 95 1.015 1.016 1.017 NW 1,4 19,3 0,0
18-09-2019 19,3     23,5     28,2 8,9 54 76 97 1.013 1.014 1.015 E 1,3 16,1 0,2
17-09-2019 19,0     22,9     27,7 8,7 69 87 96 1.013 1.016 1.018 WSW 0,8 16,1 0,0
16-09-2019 21,2     23,9     26,0 4,8 79 90 95 1.016 1.017 1.018 NE 3,9 27,4 0,0
15-09-2019 22,7     23,9     26,4 3,7 84 92 95 1.017 1.018 1.021 NE 7,6 32,2 0,0
14-09-2019 17,9     22,2     23,4 5,5 79 89 98 1.019 1.021 1.025 NNW 8,5 45,1 13,8
Últims 13 mesos disponibles
09/2019 13,9 19,6 23,7 23,4 23,3 27,2 32,1 18,2 64 81 92 1.009 1.016 1.022 ESE 2,8 53,1 188,0
08/2019 19,0 21,9 25,3 26,1 26,9 30,6 36,3 17,3 61 76 85 1.009 1.015 1.019 SW 2,6 38,6 29,8
07/2019 19,9 22,0 26,1 26,6 28,7 31,2 36,2 16,3 51 71 81 1.005 1.013 1.020 ESE 2,7 45,1 2,2
06/2019 13,0 17,6 22,8 22,4 21,6 27,1 35,9 22,9 50 70 83 1.008 1.014 1.021 NNW 3,5 41,8 0,8
05/2019 9,8 14,2 19,7 18,7 19,8 23,6 30,1 20,3 54 72 84 1.004 1.015 1.024 WSW 2,2 41,8 12,4
04/2019 7,8 11,2 14,3 15,3 14,3 20,0 28,6 20,8 47 73 95 999 1.012 1.025 W 3,3 43,5 363,0
03/2019 6,4 9,3 13,2 14,2 13,9 19,3 28,1 21,7 45 67 91 1.010 1.022 1.029 NW 2,4 38,6 39,2
02/2019 4,3 7,3 11,5 12,0 13,0 17,4 22,8 18,5 38 70 86 995 1.024 1.033 NW 2,2 53,1 1,0
01/2019 2,3 7,0 11,9 11,3 11,3 16,4 21,5 19,2 40 65 87 1.003 1.018 1.030 NW 2,2 46,7 6,8
12/2018 5,6 8,5 10,9 12,8 13,1 18,5 22,3 16,7 57 77 88 1.008 1.024 1.030 NW 0,8 45,1 4,6
11/2018 7,2 11,3 17,3 14,9 15,1 19,2 23,8 16,6 57 76 94 999 1.015 1.022 NW 1,8 48,3 115,4
10/2018 8,7 15,0 18,4 18,8 14,8 23,2 28,5 19,8 45 76 89 999 1.014 1.024 1,8 37,0 127,2
09/2018 15,0 20,6 23,2 24,2 22,9 28,5 31,5 16,5 73 82 92 1.011 1.018 1.026 1,8 32,2 140,4
Tots els anys disponibles
2018 2,1 14,2 25,8 18,4 8,1 23,2 37,5 35,4 37 76 94 999 1.017 1.030 NW 2,2 62,8 778,8
2017 0,4 14,1 26,9 18,7 8,9 23,3 35,9 35,5 38 71 96 999 1.018 1.036 0,0 68,0 720,4
2016 1,9 14,4 24,3 18,7 12,2 23,1 38,2 36,3 35 70 94 995 1.017 1.036 56,0 475,4
2015 3,8 12,1 21,1 16,4 13,1 20,7 30,4 26,6 44 78 91 1.008 1.023 1.036 48,0 232,2
2014
Temperatura (°C)
Humitat relativa (%)
Velocitat del vent i ràfega màxima (km/h)
Direcció del vent (°)
Pressió (hPa)
Precipitació (mm)
Nota sobre les dades: s'avisa a l'usuari de la provisionalitat i no oficialitat d'aquestes dades
Logo AVAMET blanc
Web allotjada a Sollutia
Llicència de Creative CommonsLa web d'AVAMET i els seus continguts estan subjectes a una llicència de
Reconeixement - No Comercial - Compartir igual
Properes estacions: Altea - Club Nàutic d'Altea (Soci),    - - - - -      Últimes estacions: Castielfabib (Soci), Sant Mateu (Soci), Vallada (Soci), Agullent (Soci), Llíria - Bodegas del Campo (Soci), La Pobla Tornesa (Soci) - - -